Time;durP1;ratioP1;P1;durP2;ratioP2;P2;SDS_P1;SDS_P2;PMS_P1;PMS_P2;Temp;Humidity;BMP_temperature;BMP_pressure;BME280_temperature;BME280_humidity;BME280_pressure;Samples;Min_cycle;Max_cycle;Signal;HPM_P1;HPM_P2
2023/10/09 00:09:47;;;;;;;14.10;4.40;;;;;;;7.05;65.38;101054.67;671396;1263;138726;-81
2023/10/09 00:25:09;;;;;;;4.70;2.40;;;;;;;6.95;66.23;101019.13;671478;1262;139388;-81
2023/10/09 00:40:20;;;;;;;6.50;2.60;;;;;;;7.04;65.72;100989.52;672564;1266;139418;-81
2023/10/09 00:55:38;;;;;;;8.90;3.10;;;;;;;7.09;66.31;100987.81;671470;1271;138287;-81
2023/10/09 01:10:52;;;;;;;7.20;2.10;;;;;;;7.10;67.04;100961.50;671317;1270;138819;-81
2023/10/09 01:25:55;;;;;;;5.60;3.40;;;;;;;7.20;66.91;100941.90;671613;1262;139142;-82
2023/10/09 01:41:06;;;;;;;5.10;2.80;;;;;;;7.21;67.12;100942.21;672616;1266;138096;-81
2023/10/09 01:56:17;;;;;;;8.20;3.60;;;;;;;7.28;67.08;100956.73;671443;1268;138532;-81
2023/10/09 02:11:36;;;;;;;19.60;8.30;;;;;;;7.19;67.34;100952.73;671584;1262;139429;-81
2023/10/09 02:27:06;;;;;;;6.50;3.20;;;;;;;7.09;67.84;100939.95;671564;1263;138757;-81
2023/10/09 02:57:21;;;;;;;9.70;4.00;;;;;;;7.03;69.06;100942.43;672861;1267;139384;-80
2023/10/09 03:12:27;;;;;;;8.30;3.80;;;;;;;6.94;70.14;100922.49;671836;1266;138848;-81
2023/10/09 03:27:31;;;;;;;17.80;5.00;;;;;;;7.10;69.06;100908.40;672012;1266;138246;-81
2023/10/09 03:42:36;;;;;;;16.90;7.30;;;;;;;7.05;69.33;100869.79;673094;1266;138454;-81
2023/10/09 03:57:40;;;;;;;27.10;13.20;;;;;;;6.98;69.67;100835.41;672602;1266;138962;-81
2023/10/09 04:12:44;;;;;;;46.80;22.80;;;;;;;6.86;70.21;100826.83;672644;1265;139513;-81
2023/10/09 04:27:53;;;;;;;19.90;10.70;;;;;;;6.73;70.18;100812.50;677520;1263;138633;-80
2023/10/09 04:42:59;;;;;;;22.80;10.40;;;;;;;6.75;71.15;100807.36;672646;1265;139626;-80
2023/10/09 04:58:09;;;;;;;28.80;13.00;;;;;;;6.68;70.86;100802.21;672371;1266;139115;-80
2023/10/09 05:13:13;;;;;;;25.30;11.20;;;;;;;6.58;72.33;100799.56;674876;1263;139497;-80
2023/10/09 05:28:48;;;;;;;15.90;8.30;;;;;;;6.20;73.52;100812.29;673557;1266;138509;-82
2023/10/09 06:44:54;;;;;;;14.10;7.10;;;;;;;7.31;74.16;100769.80;673149;1263;138556;-82
2023/10/09 07:00:51;;;;;;;54.30;28.10;;;;;;;8.01;72.87;100777.13;673300;1262;138631;-82
2023/10/09 07:30:59;;;;;;;17.60;9.80;;;;;;;8.55;71.40;100778.23;675074;1263;137965;-79
2023/10/09 08:01:07;;;;;;;12.10;6.90;;;;;;;10.20;69.13;100779.69;674391;1263;138815;-82
2023/10/09 08:18:09;;;;;;;13.80;7.70;;;;;;;10.32;67.87;100795.20;657537;1301;544761;-81
2023/10/09 08:48:32;;;;;;;10.80;5.90;;;;;;;11.22;66.90;100791.91;670698;1275;138630;-83
2023/10/09 09:03:43;;;;;;;10.70;6.30;;;;;;;11.84;65.44;100754.67;673872;1266;138973;-82
2023/10/09 09:34:14;;;;;;;5.60;3.20;;;;;;;13.16;61.13;100706.09;674409;1266;138953;-81
2023/10/09 09:49:21;;;;;;;22.60;10.90;;;;;;;13.75;59.35;100705.21;679244;1272;137614;-81
2023/10/09 10:04:35;;;;;;;29.20;13.10;;;;;;;16.10;55.87;100700.75;673460;1273;138037;-80
2023/10/09 10:19:59;;;;;;;34.00;16.40;;;;;;;19.27;51.09;100696.23;673696;1264;137832;-82
2023/10/09 10:35:06;;;;;;;31.90;12.00;;;;;;;19.14;49.00;100684.89;673675;1263;138851;-82
2023/10/09 10:50:57;;;;;;;60.40;27.70;;;;;;;18.14;48.87;100667.77;676035;1264;139432;-82
2023/10/09 11:05:39;;;;;;;59.30;17.40;;;;;;;17.65;48.14;100648.79;673735;1264;138328;-80
2023/10/09 11:36:08;;;;;;;15.00;6.00;;;;;;;17.11;48.35;100633.05;675478;1264;139022;-81
2023/10/09 11:51:21;;;;;;;3.80;1.90;;;;;;;17.08;49.07;100627.84;673823;1259;139188;-82
2023/10/09 12:06:29;;;;;;;4.50;2.00;;;;;;;17.44;48.41;100621.20;673830;1264;138979;-81
2023/10/09 12:21:35;;;;;;;5.80;2.90;;;;;;;17.42;48.66;100596.02;673350;1264;138565;-81
2023/10/09 12:36:38;;;;;;;6.60;1.90;;;;;;;17.07;48.49;100557.55;673902;1277;138471;-80
2023/10/09 12:51:41;;;;;;;8.30;3.60;;;;;;;16.92;48.89;100531.58;673957;1264;138757;-80
2023/10/09 13:06:45;;;;;;;28.70;14.70;;;;;;;16.92;48.44;100518.94;673915;1263;139096;-79
2023/10/09 13:21:49;;;;;;;6.30;2.30;;;;;;;16.64;48.43;100514.20;670440;1264;139362;-80
2023/10/09 13:36:53;;;;;;;4.50;1.80;;;;;;;16.07;47.74;100513.27;674207;1264;138219;-81
2023/10/09 13:51:57;;;;;;;9.50;4.10;;;;;;;15.85;48.28;100518.61;672436;1263;138017;-79
2023/10/09 14:07:05;;;;;;;36.30;15.40;;;;;;;15.93;48.38;100516.20;669154;1260;138226;-79
2023/10/09 14:22:09;;;;;;;9.20;4.90;;;;;;;15.78;48.62;100516.52;670812;1263;139484;-79
2023/10/09 14:37:15;;;;;;;6.30;3.70;;;;;;;15.55;49.17;100516.51;671634;1263;138041;-80
2023/10/09 14:52:20;;;;;;;22.30;14.30;;;;;;;15.00;49.59;100528.35;672415;1260;139180;-80
2023/10/09 15:07:24;;;;;;;10.60;4.20;;;;;;;14.13;50.08;100537.36;673865;1264;138936;-80
2023/10/09 15:22:44;;;;;;;221.60;85.30;;;;;;;13.91;50.98;100542.19;672255;1264;139085;-80
2023/10/09 15:37:47;;;;;;;34.90;19.90;;;;;;;13.29;52.54;100544.56;671066;1263;138952;-80
2023/10/09 15:52:54;;;;;;;60.80;30.60;;;;;;;12.15;54.75;100554.19;672302;1264;138867;-81
2023/10/09 16:08:00;;;;;;;64.10;33.80;;;;;;;11.34;55.82;100564.52;671249;1264;138323;-80
2023/10/09 16:23:04;;;;;;;178.70;95.40;;;;;;;10.80;57.04;100581.69;670095;1263;138402;-80
2023/10/09 16:38:12;;;;;;;194.80;72.20;;;;;;;10.39;57.74;100592.20;669173;1263;138804;-79
2023/10/09 16:53:16;;;;;;;223.80;110.70;;;;;;;9.80;59.07;100601.27;670626;1262;138752;-79
2023/10/09 17:08:29;;;;;;;92.70;43.60;;;;;;;9.54;60.66;100607.52;669811;1264;138737;-79
2023/10/09 17:23:33;;;;;;;56.00;24.10;;;;;;;9.36;61.70;100616.61;669497;1262;137970;-79
2023/10/09 17:38:37;;;;;;;116.40;42.60;;;;;;;9.07;62.68;100633.14;669319;1263;138861;-82
2023/10/09 17:53:42;;;;;;;127.00;49.10;;;;;;;8.70;63.81;100649.70;671715;1260;138684;-79
2023/10/09 18:08:46;;;;;;;144.20;57.20;;;;;;;8.35;64.73;100646.62;670434;1262;139721;-80
2023/10/09 18:23:55;;;;;;;117.90;48.10;;;;;;;8.13;65.59;100642.63;669188;1264;140211;-80
2023/10/09 18:38:59;;;;;;;117.70;44.50;;;;;;;7.86;66.12;100648.70;668661;1262;139969;-80
2023/10/09 18:54:05;;;;;;;75.40;28.50;;;;;;;7.64;66.77;100645.95;669338;1262;139524;-79
2023/10/09 19:09:08;;;;;;;37.40;16.00;;;;;;;7.35;67.44;100655.54;670691;1262;139741;-80
2023/10/09 19:24:11;;;;;;;161.10;42.20;;;;;;;7.11;68.28;100658.01;669730;1263;138764;-80
2023/10/09 19:39:16;;;;;;;167.70;47.00;;;;;;;6.88;68.84;100658.39;672400;1262;139109;-80
2023/10/09 19:54:21;;;;;;;164.20;55.40;;;;;;;6.63;69.45;100656.19;669917;1264;138972;-80
2023/10/09 20:09:25;;;;;;;27.50;12.80;;;;;;;6.48;69.61;100664.64;672478;1265;139017;-80
2023/10/09 20:24:29;;;;;;;27.40;12.40;;;;;;;6.23;70.24;100674.02;672119;1262;138693;-80
2023/10/09 20:39:32;;;;;;;27.60;12.50;;;;;;;6.01;70.42;100687.36;671194;1265;141078;-80
2023/10/09 20:54:36;;;;;;;32.90;13.30;;;;;;;5.77;70.71;100688.67;669723;1262;138515;-80
2023/10/09 21:09:44;;;;;;;45.00;20.50;;;;;;;5.56;71.28;100696.56;668690;1262;138566;-80
2023/10/09 21:24:47;;;;;;;43.60;18.20;;;;;;;5.33;72.02;100701.50;671683;1263;138849;-80
2023/10/09 21:39:51;;;;;;;55.90;24.50;;;;;;;5.11;72.99;100692.05;670146;1263;138951;-80
2023/10/09 21:54:55;;;;;;;83.00;31.20;;;;;;;4.99;73.37;100697.47;670434;1263;138958;-81
2023/10/09 22:10:00;;;;;;;47.90;20.90;;;;;;;4.84;74.22;100707.86;671289;1260;138770;-80
2023/10/09 22:25:09;;;;;;;49.80;18.60;;;;;;;4.75;74.33;100704.88;672673;1265;138795;-80
2023/10/09 22:40:22;;;;;;;50.90;22.00;;;;;;;4.61;74.50;100710.00;673085;1265;138904;-81
2023/10/09 22:55:31;;;;;;;55.40;23.00;;;;;;;4.61;75.15;100721.25;672900;1260;139295;-81
2023/10/09 23:10:49;;;;;;;46.00;20.10;;;;;;;4.67;75.04;100726.10;672655;1275;139394;-81
2023/10/09 23:25:53;;;;;;;52.20;22.50;;;;;;;4.65;74.83;100738.02;670528;1263;139296;-81
2023/10/09 23:40:57;;;;;;;39.00;19.10;;;;;;;4.63;74.93;100748.17;671903;1263;140841;-80
2023/10/09 23:56:08;;;;;;;44.20;19.90;;;;;;;4.66;75.19;100761.71;672774;1260;139031;-81
